createdAt,value
2022-11-20T00:00:17.853Z,23.15
2022-11-20T00:00:49.423Z,26.58
2022-11-20T00:01:23.674Z,25.55
2022-11-20T00:01:55.316Z,27.48
2022-11-20T00:02:27.138Z,26.92
2022-11-20T00:02:58.741Z,25.60
2022-11-20T00:03:30.374Z,25.50
2022-11-20T00:04:02.209Z,25.27
2022-11-20T00:04:33.806Z,24.45
2022-11-20T00:05:05.849Z,22.20
2022-11-20T00:05:37.387Z,22.38
2022-11-20T00:06:11.644Z,23.10
2022-11-20T00:06:43.274Z,24.48
2022-11-20T00:07:14.925Z,21.70
2022-11-20T00:07:46.541Z,21.52
2022-11-20T00:08:18.167Z,25.02
2022-11-20T00:08:50.479Z,23.73
2022-11-20T00:09:22.410Z,23.17
2022-11-20T00:09:54.406Z,22.30
2022-11-20T00:10:26.005Z,23.73
2022-11-20T00:10:57.672Z,27.90
2022-11-20T00:11:31.252Z,24.23
2022-11-20T00:12:02.988Z,24.40
2022-11-20T00:12:34.663Z,24.98
2022-11-20T00:13:06.568Z,26.65
2022-11-20T00:13:38.183Z,23.73
2022-11-20T00:14:10.800Z,24.05
2022-11-20T00:14:42.442Z,26.98
2022-11-20T00:15:14.012Z,25.92
2022-11-20T00:15:45.643Z,23.17
2022-11-20T00:16:20.203Z,28.90
2022-11-20T00:16:51.816Z,25.67
2022-11-20T00:17:23.996Z,23.42
2022-11-20T00:17:55.588Z,27.40
2022-11-20T00:18:28.297Z,23.85
2022-11-20T00:18:59.982Z,27.10
2022-11-20T00:19:31.595Z,24.48
2022-11-20T00:20:03.298Z,25.58
2022-11-20T00:20:34.855Z,25.02
2022-11-20T00:21:10.587Z,28.35
2022-11-20T00:21:42.193Z,25.92
2022-11-20T00:22:13.771Z,23.20
2022-11-20T00:22:45.415Z,24.38
2022-11-20T00:23:16.982Z,23.60
2022-11-20T00:23:49.498Z,23.05
2022-11-20T00:24:21.057Z,27.17
2022-11-20T00:24:52.612Z,25.40
2022-11-20T00:25:24.167Z,26.48
2022-11-20T00:25:55.738Z,24.20
2022-11-20T00:26:28.727Z,27.88
2022-11-20T00:27:00.270Z,26.05
2022-11-20T00:27:31.857Z,27.55
2022-11-20T00:28:03.571Z,24.00
2022-11-20T00:28:35.487Z,27.27
2022-11-20T00:29:07.175Z,26.25
2022-11-20T00:29:38.755Z,25.38
2022-11-20T00:30:14.674Z,28.27
2022-11-20T00:30:46.541Z,25.65
2022-11-20T00:31:18.370Z,26.88
2022-11-20T00:31:49.947Z,28.88
2022-11-20T00:32:21.495Z,26.08
2022-11-20T00:32:53.038Z,26.42
2022-11-20T00:33:24.671Z,24.80
2022-11-20T00:33:56.524Z,28.17
2022-11-20T00:34:28.070Z,25.05
2022-11-20T00:34:59.656Z,25.83
2022-11-20T00:35:31.214Z,25.60
2022-11-20T00:36:17.172Z,25.40
2022-11-20T00:36:48.902Z,25.92
2022-11-20T00:37:20.516Z,28.33
2022-11-20T00:37:52.104Z,23.90
2022-11-20T00:38:23.759Z,23.83
2022-11-20T00:38:57.925Z,27.88
2022-11-20T00:39:29.562Z,24.77
2022-11-20T00:40:01.123Z,26.05
2022-11-20T00:40:32.704Z,26.98
2022-11-20T00:41:09.439Z,27.45
2022-11-20T00:41:41.040Z,28.95
2022-11-20T00:42:12.587Z,29.38
2022-11-20T00:42:44.191Z,25.33
2022-11-20T00:43:15.722Z,25.88
2022-11-20T00:43:47.346Z,29.73
2022-11-20T00:44:18.895Z,25.75
2022-11-20T00:44:50.491Z,28.42
2022-11-20T00:45:22.178Z,25.67
2022-11-20T00:46:01.339Z,26.85
2022-11-20T00:46:33.027Z,26.17
2022-11-20T00:47:04.729Z,27.58
2022-11-20T00:47:36.329Z,26.13
2022-11-20T00:48:07.930Z,26.13
2022-11-20T00:48:39.534Z,24.10
2022-11-20T00:49:11.114Z,23.65
2022-11-20T00:49:42.715Z,26.95
2022-11-20T00:50:14.424Z,25.20
2022-11-20T00:50:46.002Z,25.52
2022-11-20T00:51:20.299Z,27.42
2022-11-20T00:51:51.874Z,26.63
2022-11-20T00:52:23.423Z,26.42
2022-11-20T00:52:55.006Z,25.73
2022-11-20T00:53:27.087Z,23.92
2022-11-20T00:54:00.940Z,25.50
2022-11-20T00:54:32.691Z,24.95
2022-11-20T00:55:04.534Z,25.08
2022-11-20T00:55:36.187Z,25.08
2022-11-20T00:56:11.187Z,23.92
2022-11-20T00:56:42.719Z,27.48
2022-11-20T00:57:14.328Z,26.08
2022-11-20T00:57:45.875Z,25.63
2022-11-20T00:58:17.447Z,28.35
2022-11-20T00:58:49.896Z,29.58
2022-11-20T00:59:21.744Z,27.58
2022-11-20T00:59:53.476Z,32.85
2022-11-20T01:00:25.073Z,38.03
2022-11-20T01:01:06.195Z,50.40
2022-11-20T01:01:38.404Z,48.85
2022-11-20T01:02:10.131Z,48.00
2022-11-20T01:02:41.719Z,50.42
2022-11-20T01:03:13.274Z,37.95
2022-11-20T01:03:46.974Z,34.63
2022-11-20T01:04:18.563Z,34.88
2022-11-20T01:04:50.426Z,32.63
2022-11-20T01:05:21.975Z,34.15
2022-11-20T01:05:53.542Z,43.80
2022-11-20T01:06:30.747Z,54.83
2022-11-20T01:07:02.346Z,56.05
2022-11-20T01:07:33.998Z,48.28
2022-11-20T01:08:05.814Z,49.88
2022-11-20T01:08:38.111Z,39.55
2022-11-20T01:09:13.467Z,37.20
2022-11-20T01:09:45.107Z,30.25
2022-11-20T01:10:16.675Z,28.27
2022-11-20T01:10:48.238Z,30.20
2022-11-20T01:11:31.709Z,33.40
2022-11-20T01:12:03.434Z,30.63
2022-11-20T01:12:35.070Z,31.88
2022-11-20T01:13:25.867Z,32.00
2022-11-20T01:13:59.415Z,28.98
2022-11-20T01:14:30.980Z,28.48
2022-11-20T01:15:02.552Z,30.67
2022-11-20T01:15:35.080Z,31.35
2022-11-20T01:16:06.777Z,26.33
2022-11-20T01:16:44.455Z,27.17
2022-11-20T01:17:16.031Z,28.02
2022-11-20T01:17:47.629Z,27.38
2022-11-20T01:18:19.346Z,25.70
2022-11-20T01:18:53.426Z,26.67
2022-11-20T01:19:25.386Z,27.77
2022-11-20T01:19:57.127Z,25.77
2022-11-20T01:20:28.717Z,26.10
2022-11-20T01:21:09.874Z,25.08
2022-11-20T01:21:43.963Z,28.95
2022-11-20T01:22:15.541Z,28.05
2022-11-20T01:22:47.091Z,28.40
2022-11-20T01:23:18.678Z,33.85
2022-11-20T01:23:51.287Z,42.28
2022-11-20T01:24:23.130Z,42.40
2022-11-20T01:24:54.759Z,46.80
2022-11-20T01:25:26.447Z,44.88
2022-11-20T01:25:58.049Z,44.17
2022-11-20T01:26:32.597Z,40.00
2022-11-20T01:27:04.214Z,35.15
2022-11-20T01:27:35.764Z,35.70
2022-11-20T01:28:07.347Z,30.05
2022-11-20T01:28:39.927Z,34.58
2022-11-20T01:29:18.093Z,31.88
2022-11-20T01:29:49.776Z,29.75
2022-11-20T01:30:21.382Z,32.20
2022-11-20T01:30:52.910Z,30.25
2022-11-20T01:31:28.298Z,29.10
2022-11-20T01:31:59.901Z,27.25
2022-11-20T01:32:31.478Z,26.80
2022-11-20T01:33:03.602Z,26.52
2022-11-20T01:33:35.173Z,25.67
2022-11-20T01:34:18.484Z,25.77
2022-11-20T01:34:50.072Z,26.48
2022-11-20T01:35:21.686Z,23.90
2022-11-20T01:35:54.046Z,26.27
2022-11-20T01:36:28.495Z,24.27
2022-11-20T01:37:00.109Z,24.85
2022-11-20T01:37:31.666Z,25.05
2022-11-20T01:38:03.252Z,23.50
2022-11-20T01:38:35.181Z,25.27
2022-11-20T01:39:11.142Z,25.83
2022-11-20T01:39:42.701Z,23.77
2022-11-20T01:40:14.427Z,21.70
2022-11-20T01:40:45.990Z,22.25
2022-11-20T01:41:36.449Z,21.58
2022-11-20T01:42:27.144Z,21.30
2022-11-20T01:43:23.960Z,22.88
2022-11-20T01:43:55.540Z,20.23
2022-11-20T01:44:49.367Z,20.60
2022-11-20T01:45:54.891Z,22.75
2022-11-20T01:46:26.542Z,22.30
2022-11-20T01:47:05.647Z,22.05
2022-11-20T01:47:47.378Z,22.77
2022-11-20T01:48:22.879Z,19.65
2022-11-20T01:49:02.314Z,22.30
2022-11-20T01:49:41.746Z,22.30
2022-11-20T01:50:19.622Z,20.60
2022-11-20T01:50:53.626Z,24.05
2022-11-20T01:51:51.154Z,20.92
2022-11-20T01:52:54.204Z,20.02
2022-11-20T01:53:31.198Z,23.65
2022-11-20T01:54:08.038Z,24.63
2022-11-20T01:54:45.121Z,23.27
2022-11-20T01:55:22.512Z,22.70
2022-11-20T01:55:58.054Z,24.63
2022-11-20T01:56:33.546Z,20.55
2022-11-20T01:57:07.198Z,24.20
2022-11-20T01:57:39.698Z,22.90
2022-11-20T01:58:11.442Z,27.73
2022-11-20T01:58:49.638Z,24.60
2022-11-20T01:59:23.904Z,26.08
2022-11-20T02:00:00.906Z,25.13
2022-11-20T02:01:14.191Z,22.98
2022-11-20T02:01:46.093Z,24.70
2022-11-20T02:02:17.723Z,24.85
2022-11-20T02:02:59.507Z,22.95
2022-11-20T02:03:31.835Z,21.50
2022-11-20T02:04:03.852Z,23.75
2022-11-20T02:04:35.551Z,22.38
2022-11-20T02:05:18.416Z,20.98
2022-11-20T02:06:13.723Z,22.73
2022-11-20T02:06:49.486Z,22.30
2022-11-20T02:07:22.086Z,22.05
2022-11-20T02:07:54.873Z,20.85
2022-11-20T02:08:26.422Z,19.60
2022-11-20T02:08:57.959Z,20.77
2022-11-20T02:09:29.724Z,23.50
2022-11-20T02:10:01.520Z,21.45
2022-11-20T02:10:33.573Z,22.10
2022-11-20T02:11:05.357Z,23.40
2022-11-20T02:11:36.924Z,23.90
2022-11-20T02:12:28.552Z,20.77
2022-11-20T02:13:18.908Z,21.33
2022-11-20T02:13:51.229Z,21.80
2022-11-20T02:14:24.047Z,19.92
2022-11-20T02:14:55.619Z,20.83
2022-11-20T02:15:30.308Z,20.38
2022-11-20T02:16:03.214Z,18.67
2022-11-20T02:16:38.627Z,19.35
2022-11-20T02:17:12.163Z,21.92
2022-11-20T02:17:43.775Z,18.77
2022-11-20T02:18:17.143Z,20.20
2022-11-20T02:18:49.418Z,18.92
2022-11-20T02:19:31.717Z,18.77
2022-11-20T02:20:04.101Z,19.98
2022-11-20T02:20:35.715Z,19.85
2022-11-20T02:21:26.417Z,21.70
2022-11-20T02:22:18.283Z,20.15
2022-11-20T02:22:58.377Z,21.48
2022-11-20T02:23:32.631Z,17.75
2022-11-20T02:24:10.884Z,18.27
2022-11-20T02:24:44.881Z,19.33
2022-11-20T02:25:17.117Z,17.52
2022-11-20T02:25:49.121Z,21.83
2022-11-20T02:26:23.072Z,20.27
2022-11-20T02:26:59.443Z,19.98
2022-11-20T02:27:31.166Z,20.75
2022-11-20T02:28:03.782Z,20.15
2022-11-20T02:28:35.691Z,20.35
2022-11-20T02:29:07.274Z,21.23
2022-11-20T02:29:56.690Z,19.58
2022-11-20T02:30:28.279Z,18.70
2022-11-20T02:30:59.879Z,21.50
2022-11-20T02:31:38.599Z,19.88
2022-11-20T02:32:39.758Z,19.38
2022-11-20T02:33:11.315Z,19.13
2022-11-20T02:33:42.887Z,19.92
2022-11-20T02:34:14.518Z,20.80
2022-11-20T02:34:46.179Z,19.38
2022-11-20T02:35:20.501Z,19.58
2022-11-20T02:35:52.067Z,20.00
2022-11-20T02:36:26.923Z,19.63
2022-11-20T02:37:00.132Z,20.10
2022-11-20T02:37:35.099Z,19.77
2022-11-20T02:38:06.723Z,22.58
2022-11-20T02:38:38.499Z,23.02
2022-11-20T02:39:13.182Z,20.30
2022-11-20T02:39:47.015Z,21.02
2022-11-20T02:40:18.716Z,20.25
2022-11-20T02:40:55.115Z,19.25
2022-11-20T02:41:38.271Z,20.35
2022-11-20T02:42:09.856Z,18.50
2022-11-20T02:42:41.584Z,20.35
2022-11-20T02:43:13.299Z,20.20
2022-11-20T02:43:44.866Z,19.38
2022-11-20T02:44:16.508Z,21.88
2022-11-20T02:44:48.083Z,20.30
2022-11-20T02:45:19.779Z,22.08
2022-11-20T02:45:51.556Z,19.30
2022-11-20T02:46:23.100Z,19.35
2022-11-20T02:46:57.685Z,19.30
2022-11-20T02:47:29.331Z,20.75
2022-11-20T02:48:01.008Z,22.65
2022-11-20T02:48:34.054Z,19.55
2022-11-20T02:49:06.288Z,21.48
2022-11-20T02:49:37.957Z,18.35
2022-11-20T02:50:09.662Z,19.15
2022-11-20T02:50:41.544Z,21.90
2022-11-20T02:51:13.096Z,20.83
2022-11-20T02:51:44.975Z,17.35
2022-11-20T02:52:16.554Z,20.13
2022-11-20T02:52:48.187Z,21.35
2022-11-20T02:53:19.825Z,21.38
2022-11-20T02:53:51.616Z,22.00
2022-11-20T02:54:23.879Z,21.42
2022-11-20T02:54:55.700Z,19.83
2022-11-20T02:55:27.329Z,22.73
2022-11-20T02:55:58.911Z,22.40
2022-11-20T02:56:30.814Z,19.70
2022-11-20T02:57:02.502Z,23.55
2022-11-20T02:57:34.220Z,20.95
2022-11-20T02:58:05.841Z,24.00
2022-11-20T02:58:37.396Z,19.85
2022-11-20T02:59:09.314Z,20.77
2022-11-20T02:59:40.878Z,21.20
2022-11-20T03:00:13.166Z,18.08
2022-11-20T03:00:44.753Z,21.55
2022-11-20T03:01:16.618Z,20.98
2022-11-20T03:01:48.222Z,22.83
2022-11-20T03:02:20.193Z,18.50
2022-11-20T03:02:51.768Z,18.92
2022-11-20T03:03:23.369Z,19.65
2022-11-20T03:03:55.893Z,19.58
2022-11-20T03:04:27.458Z,24.02
2022-11-20T03:04:59.112Z,20.65
2022-11-20T03:05:30.705Z,19.98
2022-11-20T03:06:02.409Z,19.15
2022-11-20T03:06:34.305Z,20.92
2022-11-20T03:07:06.065Z,20.00
2022-11-20T03:07:37.758Z,20.33
2022-11-20T03:08:09.377Z,21.73
2022-11-20T03:08:40.947Z,23.45
2022-11-20T03:09:12.860Z,21.08
2022-11-20T03:09:44.401Z,22.83
2022-11-20T03:10:16.065Z,21.27
2022-11-20T03:10:47.607Z,20.13
2022-11-20T03:11:19.333Z,23.60
2022-11-20T03:11:51.055Z,22.25
2022-11-20T03:12:22.599Z,23.67
2022-11-20T03:12:57.567Z,20.98
2022-11-20T03:13:29.199Z,19.98
2022-11-20T03:14:04.194Z,22.63
2022-11-20T03:14:35.738Z,20.83
2022-11-20T03:15:07.904Z,23.45
2022-11-20T03:15:39.502Z,19.17
2022-11-20T03:16:14.477Z,23.30
2022-11-20T03:16:46.033Z,23.55
2022-11-20T03:17:17.692Z,23.90
2022-11-20T03:17:49.351Z,20.10
2022-11-20T03:18:20.927Z,23.00
2022-11-20T03:18:53.726Z,21.58
2022-11-20T03:19:25.341Z,21.85
2022-11-20T03:19:56.876Z,22.45
2022-11-20T03:20:28.527Z,22.88
2022-11-20T03:21:00.186Z,23.23
2022-11-20T03:21:33.538Z,21.40
2022-11-20T03:22:05.086Z,22.35
2022-11-20T03:22:36.728Z,21.98
2022-11-20T03:23:08.306Z,21.02
2022-11-20T03:23:40.723Z,21.77
2022-11-20T03:24:12.305Z,24.45
2022-11-20T03:24:43.853Z,22.38
2022-11-20T03:25:15.511Z,22.40
2022-11-20T03:25:47.061Z,20.58
2022-11-20T03:26:21.801Z,21.45
2022-11-20T03:26:53.463Z,21.67
2022-11-20T03:27:25.035Z,23.38
2022-11-20T03:27:56.695Z,22.17
2022-11-20T03:28:28.277Z,23.00
2022-11-20T03:29:02.181Z,22.65
2022-11-20T03:29:33.786Z,22.38
2022-11-20T03:30:06.491Z,22.27
2022-11-20T03:30:38.103Z,22.55
2022-11-20T03:31:13.173Z,23.23
2022-11-20T03:31:44.841Z,22.92
2022-11-20T03:32:16.421Z,21.45
2022-11-20T03:32:48.374Z,22.35
2022-11-20T03:33:19.947Z,23.35
2022-11-20T03:33:51.841Z,24.60
2022-11-20T03:34:24.197Z,22.42
2022-11-20T03:34:55.764Z,24.55
2022-11-20T03:35:27.419Z,27.73
2022-11-20T03:36:03.682Z,23.48
2022-11-20T03:36:35.331Z,21.63
2022-11-20T03:37:07.366Z,21.90
2022-11-20T03:37:38.957Z,24.25
2022-11-20T03:38:10.583Z,23.75
2022-11-20T03:38:42.487Z,21.95
2022-11-20T03:39:14.205Z,25.00
2022-11-20T03:39:45.754Z,23.80
2022-11-20T03:40:17.326Z,21.52
2022-11-20T03:40:49.830Z,24.67
2022-11-20T03:41:24.543Z,22.05
2022-11-20T03:41:56.090Z,19.73
2022-11-20T03:42:46.305Z,23.05
2022-11-20T03:43:17.852Z,21.88
2022-11-20T03:43:54.806Z,19.90
2022-11-20T03:44:26.434Z,23.02
2022-11-20T03:44:57.975Z,24.55
2022-11-20T03:45:29.520Z,25.27
2022-11-20T03:46:01.706Z,24.30
2022-11-20T03:46:33.689Z,24.95
2022-11-20T03:47:05.213Z,25.48
2022-11-20T03:47:36.997Z,26.48
2022-11-20T03:48:08.577Z,22.00
2022-11-20T03:48:40.195Z,21.90
2022-11-20T03:49:11.819Z,23.17
2022-11-20T03:49:43.931Z,23.05
2022-11-20T03:50:15.692Z,22.95
2022-11-20T03:50:48.650Z,24.17
2022-11-20T03:51:29.015Z,24.02
2022-11-20T03:52:00.558Z,23.08
2022-11-20T03:52:32.093Z,21.65
2022-11-20T03:53:03.631Z,25.67
2022-11-20T03:53:35.356Z,24.70
2022-11-20T03:54:09.227Z,23.38
2022-11-20T03:54:40.829Z,24.25
2022-11-20T03:55:12.404Z,24.90
2022-11-20T03:55:44.113Z,25.42
2022-11-20T03:56:17.637Z,24.63
2022-11-20T03:56:49.206Z,25.27
2022-11-20T03:57:20.778Z,27.67
2022-11-20T03:57:52.518Z,24.55
2022-11-20T03:58:24.108Z,23.73
2022-11-20T03:58:56.053Z,26.83
2022-11-20T03:59:27.662Z,23.42
2022-11-20T03:59:59.230Z,22.75
2022-11-20T04:00:30.767Z,24.23
2022-11-20T04:01:07.525Z,22.92
2022-11-20T04:01:39.206Z,20.85
2022-11-20T04:02:10.902Z,23.38
2022-11-20T04:02:42.503Z,22.42
2022-11-20T04:03:14.042Z,25.85
2022-11-20T04:03:46.735Z,22.95
2022-11-20T04:04:18.314Z,23.15
2022-11-20T04:04:49.910Z,23.35
2022-11-20T04:05:21.459Z,22.70
2022-11-20T04:05:53.030Z,22.10
2022-11-20T04:06:30.036Z,21.92
2022-11-20T04:07:01.670Z,20.60
2022-11-20T04:07:35.069Z,22.38
2022-11-20T04:08:06.714Z,23.77
2022-11-20T04:08:39.104Z,24.17
2022-11-20T04:09:10.873Z,22.45
2022-11-20T04:09:42.430Z,22.98
2022-11-20T04:10:14.080Z,22.45
2022-11-20T04:10:45.651Z,22.92
2022-11-20T04:11:22.553Z,24.15
2022-11-20T04:11:54.123Z,23.30
2022-11-20T04:12:25.669Z,22.00
2022-11-20T04:12:57.193Z,22.15
2022-11-20T04:13:28.811Z,22.55
2022-11-20T04:14:02.753Z,22.13
2022-11-20T04:14:34.349Z,23.30
2022-11-20T04:15:06.480Z,23.30
2022-11-20T04:15:38.617Z,24.95
2022-11-20T04:16:10.939Z,24.40
2022-11-20T04:16:43.022Z,24.95
2022-11-20T04:17:14.582Z,23.98
2022-11-20T04:17:46.158Z,22.92
2022-11-20T04:18:17.696Z,24.92
2022-11-20T04:18:53.957Z,24.80
2022-11-20T04:19:25.493Z,28.60
2022-11-20T04:19:57.074Z,27.92
2022-11-20T04:20:28.673Z,22.63
2022-11-20T04:21:00.814Z,25.38
2022-11-20T04:21:32.718Z,25.40
2022-11-20T04:22:04.386Z,24.77
2022-11-20T04:22:35.953Z,27.00
2022-11-20T04:23:07.530Z,23.75
2022-11-20T04:23:39.986Z,27.25
2022-11-20T04:24:11.881Z,25.10
2022-11-20T04:24:43.493Z,25.95
2022-11-20T04:25:15.070Z,26.10
2022-11-20T04:25:46.661Z,25.80
2022-11-20T04:26:18.462Z,27.67
2022-11-20T04:26:50.049Z,26.45
2022-11-20T04:27:21.939Z,27.67
2022-11-20T04:27:53.490Z,25.23
2022-11-20T04:28:25.201Z,25.27
2022-11-20T04:28:57.854Z,27.88
2022-11-20T04:29:29.442Z,28.73
2022-11-20T04:30:01.054Z,27.23
2022-11-20T04:30:32.681Z,25.92
2022-11-20T04:31:11.484Z,30.58
2022-11-20T04:31:43.065Z,26.50
2022-11-20T04:32:14.627Z,25.75
2022-11-20T04:32:46.212Z,26.95
2022-11-20T04:33:17.835Z,23.55
2022-11-20T04:33:49.987Z,25.80
2022-11-20T04:34:21.572Z,25.98
2022-11-20T04:34:53.151Z,26.85
2022-11-20T04:35:24.754Z,25.85
2022-11-20T04:35:56.506Z,28.05
2022-11-20T04:36:29.186Z,25.98
2022-11-20T04:37:01.119Z,23.77
2022-11-20T04:37:32.707Z,24.85
2022-11-20T04:38:05.019Z,24.95
2022-11-20T04:38:36.699Z,25.02
2022-11-20T04:39:08.369Z,24.17
2022-11-20T04:39:40.006Z,24.55
2022-11-20T04:40:12.222Z,24.42
2022-11-20T04:40:43.761Z,27.58
2022-11-20T04:41:20.252Z,24.27
2022-11-20T04:42:14.393Z,26.30
2022-11-20T04:42:45.970Z,25.67
2022-11-20T04:43:17.522Z,26.88
2022-11-20T04:43:50.566Z,26.25
2022-11-20T04:44:22.146Z,22.70
2022-11-20T04:44:53.704Z,26.33
2022-11-20T04:45:25.294Z,23.80
2022-11-20T04:45:58.377Z,25.13
2022-11-20T04:46:32.581Z,25.42
2022-11-20T04:47:04.179Z,26.40
2022-11-20T04:47:35.803Z,24.58
2022-11-20T04:48:07.381Z,23.00
2022-11-20T04:48:38.945Z,24.58
2022-11-20T04:49:11.912Z,24.88
2022-11-20T04:49:43.547Z,25.52
2022-11-20T04:50:15.270Z,25.58
2022-11-20T04:50:46.946Z,26.65
2022-11-20T04:51:18.703Z,25.58
2022-11-20T04:51:50.238Z,24.15
2022-11-20T04:52:21.797Z,26.75
2022-11-20T04:52:53.417Z,26.02
2022-11-20T04:53:25.214Z,27.20
2022-11-20T04:53:56.859Z,27.77
2022-11-20T04:54:28.518Z,27.77
2022-11-20T04:55:00.054Z,23.30
2022-11-20T04:55:31.592Z,25.38
2022-11-20T04:56:05.890Z,25.92
2022-11-20T04:56:37.831Z,27.45
2022-11-20T04:57:14.274Z,24.75
2022-11-20T04:57:46.246Z,26.90
2022-11-20T04:58:18.207Z,26.60
2022-11-20T04:58:49.911Z,24.63
2022-11-20T04:59:21.771Z,26.13
2022-11-20T04:59:53.606Z,26.20
2022-11-20T05:00:25.479Z,24.48
2022-11-20T05:01:04.422Z,25.15
2022-11-20T05:01:36.005Z,25.73
2022-11-20T05:02:07.632Z,27.65
2022-11-20T05:02:39.215Z,33.42
2022-11-20T05:03:10.823Z,34.25
2022-11-20T05:03:43.920Z,43.90
2022-11-20T05:04:15.462Z,49.65
2022-11-20T05:04:47.130Z,92.15
2022-11-20T05:05:19.264Z,69.57
2022-11-20T05:05:50.854Z,61.88
2022-11-20T05:06:23.121Z,91.05
2022-11-20T05:06:54.737Z,75.47
2022-11-20T05:07:26.359Z,92.55
2022-11-20T05:07:59.047Z,59.08
2022-11-20T05:08:31.629Z,57.28
2022-11-20T05:09:03.314Z,57.38
2022-11-20T05:09:34.930Z,54.45
2022-11-20T05:10:07.074Z,56.95
2022-11-20T05:10:39.022Z,58.67
2022-11-20T05:11:16.563Z,64.38
2022-11-20T05:11:51.373Z,62.95
2022-11-20T05:12:23.206Z,55.42
2022-11-20T05:12:54.857Z,55.22
2022-11-20T05:13:26.491Z,47.00
2022-11-20T05:13:59.878Z,45.88
2022-11-20T05:14:31.553Z,48.63
2022-11-20T05:15:03.346Z,43.10
2022-11-20T05:15:35.062Z,37.05
2022-11-20T05:16:15.553Z,36.78
2022-11-20T05:16:47.422Z,36.22
2022-11-20T05:17:19.017Z,30.83
2022-11-20T05:17:53.695Z,29.27
2022-11-20T05:18:25.238Z,29.58
2022-11-20T05:18:56.878Z,24.95
2022-11-20T05:19:28.460Z,24.15
2022-11-20T05:20:00.091Z,24.52
2022-11-20T05:20:31.666Z,25.55
2022-11-20T05:21:04.321Z,25.75
2022-11-20T05:21:35.862Z,25.55
2022-11-20T05:22:07.666Z,28.05
2022-11-20T05:22:39.279Z,29.25
2022-11-20T05:23:10.923Z,27.05
2022-11-20T05:23:43.551Z,26.30
2022-11-20T05:24:15.095Z,29.02
2022-11-20T05:24:46.633Z,27.88
2022-11-20T05:25:18.274Z,28.75
2022-11-20T05:25:57.520Z,28.15
2022-11-20T05:26:30.376Z,26.50
2022-11-20T05:27:01.928Z,25.80
2022-11-20T05:27:33.498Z,26.90
2022-11-20T05:28:05.032Z,27.08
2022-11-20T05:28:36.613Z,28.75
2022-11-20T05:29:10.322Z,30.15
2022-11-20T05:29:41.899Z,28.35
2022-11-20T05:30:14.241Z,29.50
2022-11-20T05:30:45.774Z,27.63
2022-11-20T05:31:28.358Z,29.52
2022-11-20T05:32:00.137Z,27.35
2022-11-20T05:32:31.918Z,26.27
2022-11-20T05:33:03.555Z,26.02
2022-11-20T05:33:36.411Z,25.50
2022-11-20T05:34:08.079Z,25.58
2022-11-20T05:34:39.619Z,28.05
2022-11-20T05:35:11.174Z,28.55
2022-11-20T05:35:43.130Z,24.60
2022-11-20T05:36:15.930Z,23.30
2022-11-20T05:36:47.530Z,27.00
2022-11-20T05:37:19.186Z,25.45
2022-11-20T05:37:50.795Z,25.55
2022-11-20T05:38:22.370Z,25.73
2022-11-20T05:38:59.716Z,29.40
2022-11-20T05:39:32.986Z,25.88
2022-11-20T05:40:05.210Z,29.83
2022-11-20T05:40:37.043Z,29.55
2022-11-20T05:41:14.079Z,30.15
2022-11-20T05:41:45.656Z,26.48
2022-11-20T05:42:32.676Z,26.38
2022-11-20T05:43:04.279Z,31.48
2022-11-20T05:43:37.331Z,28.83
2022-11-20T05:44:12.049Z,27.30
2022-11-20T05:44:43.629Z,27.00
2022-11-20T05:45:15.222Z,24.88
2022-11-20T05:45:56.107Z,25.27
2022-11-20T05:46:29.502Z,22.75
2022-11-20T05:47:01.378Z,23.73
2022-11-20T05:47:35.091Z,24.20
2022-11-20T05:48:06.723Z,24.70
2022-11-20T05:48:39.316Z,25.17
2022-11-20T05:49:10.954Z,22.42
2022-11-20T05:49:42.496Z,24.77
2022-11-20T05:50:15.466Z,26.17
2022-11-20T05:50:47.001Z,26.65
2022-11-20T05:51:20.138Z,24.77
2022-11-20T05:51:51.720Z,26.45
2022-11-20T05:52:23.374Z,22.90
2022-11-20T05:52:55.058Z,26.10
2022-11-20T05:53:27.846Z,22.33
2022-11-20T05:53:59.703Z,23.17
2022-11-20T05:54:31.312Z,24.45
2022-11-20T05:55:03.092Z,23.45
2022-11-20T05:55:34.753Z,26.95
2022-11-20T05:56:10.962Z,26.40
2022-11-20T05:56:42.949Z,25.92
2022-11-20T05:57:14.545Z,22.88
2022-11-20T05:57:46.185Z,24.95
2022-11-20T05:58:17.725Z,26.27
2022-11-20T05:58:50.092Z,24.00
2022-11-20T05:59:21.955Z,23.35
2022-11-20T05:59:53.693Z,26.08
2022-11-20T06:00:25.259Z,23.67
2022-11-20T06:01:11.781Z,29.55
2022-11-20T06:01:43.475Z,24.95
2022-11-20T06:02:15.127Z,29.65
2022-11-20T06:02:46.849Z,26.77
2022-11-20T06:03:18.553Z,25.23
2022-11-20T06:03:51.854Z,24.52
2022-11-20T06:04:23.722Z,25.90
2022-11-20T06:04:55.265Z,26.45
2022-11-20T06:05:26.796Z,25.63
2022-11-20T06:06:00.387Z,23.70
2022-11-20T06:06:31.994Z,23.65
2022-11-20T06:07:03.803Z,25.95
2022-11-20T06:07:35.536Z,28.60
2022-11-20T06:08:07.250Z,23.17
2022-11-20T06:08:38.863Z,25.80
2022-11-20T06:09:10.525Z,23.65
2022-11-20T06:09:42.101Z,25.08
2022-11-20T06:10:13.814Z,22.75
2022-11-20T06:10:45.367Z,26.73
2022-11-20T06:11:17.437Z,23.33
2022-11-20T06:11:48.994Z,23.77
2022-11-20T06:12:20.575Z,25.23
2022-11-20T06:12:52.162Z,21.58
2022-11-20T06:13:23.909Z,24.73
2022-11-20T06:13:55.500Z,25.50
2022-11-20T06:14:27.168Z,24.02
2022-11-20T06:14:58.759Z,28.45
2022-11-20T06:15:30.311Z,26.00
2022-11-20T06:16:02.604Z,27.05
2022-11-20T06:16:34.407Z,25.73
2022-11-20T06:17:05.943Z,24.75
2022-11-20T06:17:37.494Z,23.67
2022-11-20T06:18:09.062Z,24.90
2022-11-20T06:18:40.886Z,27.25
2022-11-20T06:19:12.466Z,25.85
2022-11-20T06:19:44.047Z,26.70
2022-11-20T06:20:15.834Z,24.17
2022-11-20T06:20:47.819Z,26.73
2022-11-20T06:21:21.790Z,25.90
2022-11-20T06:21:53.338Z,25.88
2022-11-20T06:22:24.906Z,26.27
2022-11-20T06:22:56.511Z,28.17
2022-11-20T06:23:30.030Z,23.55
2022-11-20T06:24:01.611Z,27.77
2022-11-20T06:24:33.191Z,25.30
2022-11-20T06:25:04.959Z,26.02
2022-11-20T06:25:43.550Z,25.05
2022-11-20T06:26:21.645Z,30.10
2022-11-20T06:26:53.266Z,27.20
2022-11-20T06:27:24.839Z,27.10
2022-11-20T06:27:56.418Z,26.73
2022-11-20T06:28:27.999Z,28.02
2022-11-20T06:28:59.566Z,27.92
2022-11-20T06:29:33.889Z,28.05
2022-11-20T06:30:06.450Z,29.65
2022-11-20T06:30:38.038Z,28.98
2022-11-20T06:31:12.382Z,28.85
2022-11-20T06:31:43.944Z,26.65
2022-11-20T06:32:15.514Z,26.13
2022-11-20T06:32:47.055Z,24.65
2022-11-20T06:33:18.650Z,27.80
2022-11-20T06:33:51.322Z,25.08
2022-11-20T06:34:22.881Z,26.63
2022-11-20T06:34:54.414Z,26.45
2022-11-20T06:35:26.118Z,27.30
2022-11-20T06:36:05.672Z,26.92
2022-11-20T06:36:40.651Z,26.42
2022-11-20T06:37:12.202Z,24.98
2022-11-20T06:37:43.779Z,26.85
2022-11-20T06:38:15.352Z,27.85
2022-11-20T06:38:47.359Z,25.35
2022-11-20T06:39:19.093Z,27.92
2022-11-20T06:39:50.774Z,29.67
2022-11-20T06:40:22.304Z,28.50
2022-11-20T06:40:54.183Z,27.88
2022-11-20T06:41:26.351Z,27.20
2022-11-20T06:41:59.183Z,24.10
2022-11-20T06:42:31.078Z,27.73
2022-11-20T06:43:02.675Z,26.40
2022-11-20T06:43:34.255Z,28.83
2022-11-20T06:44:06.726Z,26.70
2022-11-20T06:44:38.324Z,29.33
2022-11-20T06:45:10.454Z,27.30
2022-11-20T06:45:41.995Z,26.85
2022-11-20T06:46:15.132Z,26.73
2022-11-20T06:46:46.687Z,28.25
2022-11-20T06:47:18.226Z,27.77
2022-11-20T06:47:49.794Z,27.38
2022-11-20T06:48:21.661Z,28.58
2022-11-20T06:48:53.229Z,29.13
2022-11-20T06:49:25.113Z,28.65
2022-11-20T06:49:56.822Z,28.15
2022-11-20T06:50:28.367Z,26.40
2022-11-20T06:51:00.487Z,26.55
2022-11-20T06:51:32.032Z,26.98
2022-11-20T06:52:03.797Z,27.20
2022-11-20T06:52:38.358Z,27.67
2022-11-20T06:53:13.878Z,27.85
2022-11-20T06:53:45.808Z,26.52
2022-11-20T06:54:18.737Z,30.13
2022-11-20T06:54:50.327Z,32.08
2022-11-20T06:55:21.968Z,28.73
2022-11-20T06:55:57.186Z,28.65
2022-11-20T06:56:29.175Z,27.65
2022-11-20T06:57:00.739Z,24.98
2022-11-20T06:57:32.414Z,26.52
2022-11-20T06:58:03.946Z,26.80
2022-11-20T06:58:36.586Z,28.08
2022-11-20T06:59:08.570Z,27.10
2022-11-20T06:59:40.163Z,27.30
2022-11-20T07:00:12.554Z,26.67
2022-11-20T07:00:44.556Z,27.90
2022-11-20T07:01:16.700Z,28.25
2022-11-20T07:01:48.387Z,28.20
2022-11-20T07:02:19.934Z,26.83
2022-11-20T07:02:51.516Z,26.42
2022-11-20T07:03:23.094Z,27.05
2022-11-20T07:03:54.742Z,28.95
2022-11-20T07:04:26.339Z,26.88
2022-11-20T07:04:57.878Z,27.98
2022-11-20T07:05:29.510Z,25.85
2022-11-20T07:06:02.223Z,26.58